sensor_id;sensor_type;location;lat;lon;timestamp;temperature;humidity
5723;DHT22;2886;49.722;8.612;2022-07-29T00:01:49;21.70;52.20
5723;DHT22;2886;49.722;8.612;2022-07-29T00:04:14;21.80;50.40
5723;DHT22;2886;49.722;8.612;2022-07-29T00:06:40;21.80;49.40
5723;DHT22;2886;49.722;8.612;2022-07-29T00:09:06;21.80;50.10
5723;DHT22;2886;49.722;8.612;2022-07-29T00:11:32;21.80;50.60
5723;DHT22;2886;49.722;8.612;2022-07-29T00:13:58;21.70;50.90
5723;DHT22;2886;49.722;8.612;2022-07-29T00:16:24;21.70;53.30
5723;DHT22;2886;49.722;8.612;2022-07-29T00:18:49;21.70;54.10
5723;DHT22;2886;49.722;8.612;2022-07-29T00:21:15;21.60;54.60
5723;DHT22;2886;49.722;8.612;2022-07-29T00:23:41;21.50;56.40
5723;DHT22;2886;49.722;8.612;2022-07-29T00:26:07;21.50;56.60
5723;DHT22;2886;49.722;8.612;2022-07-29T00:28:32;21.40;62.10
5723;DHT22;2886;49.722;8.612;2022-07-29T00:30:58;21.20;66.40
5723;DHT22;2886;49.722;8.612;2022-07-29T00:33:24;21.10;69.20
5723;DHT22;2886;49.722;8.612;2022-07-29T00:35:50;20.90;71.10
5723;DHT22;2886;49.722;8.612;2022-07-29T00:38:17;20.90;73.30
5723;DHT22;2886;49.722;8.612;2022-07-29T00:40:44;20.80;74.70
5723;DHT22;2886;49.722;8.612;2022-07-29T00:43:11;20.70;76.40
5723;DHT22;2886;49.722;8.612;2022-07-29T00:45:38;20.70;76.60
5723;DHT22;2886;49.722;8.612;2022-07-29T00:48:04;20.60;76.40
5723;DHT22;2886;49.722;8.612;2022-07-29T00:50:31;20.60;76.50
5723;DHT22;2886;49.722;8.612;2022-07-29T00:52:58;20.50;75.90
5723;DHT22;2886;49.722;8.612;2022-07-29T00:55:24;20.40;74.70
5723;DHT22;2886;49.722;8.612;2022-07-29T00:57:50;20.40;74.70
5723;DHT22;2886;49.722;8.612;2022-07-29T01:00:22;20.30;76.80
5723;DHT22;2886;49.722;8.612;2022-07-29T01:02:48;20.30;77.30
5723;DHT22;2886;49.722;8.612;2022-07-29T01:05:17;20.20;77.90
5723;DHT22;2886;49.722;8.612;2022-07-29T01:07:44;20.20;77.80
5723;DHT22;2886;49.722;8.612;2022-07-29T01:10:12;20.10;77.10
5723;DHT22;2886;49.722;8.612;2022-07-29T01:12:39;20.10;76.30
5723;DHT22;2886;49.722;8.612;2022-07-29T01:15:07;20.10;75.90
5723;DHT22;2886;49.722;8.612;2022-07-29T01:29:05;19.90;76.00
5723;DHT22;2886;49.722;8.612;2022-07-29T01:31:14;19.90;75.60
5723;DHT22;2886;49.722;8.612;2022-07-29T01:33:43;19.80;75.60
5723;DHT22;2886;49.722;8.612;2022-07-29T01:36:25;19.80;75.00
5723;DHT22;2886;49.722;8.612;2022-07-29T01:41:55;19.70;77.50
5723;DHT22;2886;49.722;8.612;2022-07-29T01:44:39;19.80;77.30
5723;DHT22;2886;49.722;8.612;2022-07-29T01:47:19;19.80;77.60
5723;DHT22;2886;49.722;8.612;2022-07-29T01:49:49;19.80;77.40
5723;DHT22;2886;49.722;8.612;2022-07-29T01:52:31;19.80;77.70
5723;DHT22;2886;49.722;8.612;2022-07-29T01:55:04;19.70;77.70
5723;DHT22;2886;49.722;8.612;2022-07-29T01:57:34;19.70;79.20
5723;DHT22;2886;49.722;8.612;2022-07-29T02:00:02;19.70;81.30
5723;DHT22;2886;49.722;8.612;2022-07-29T02:02:30;19.60;81.30
5723;DHT22;2886;49.722;8.612;2022-07-29T02:04:58;19.60;81.20
5723;DHT22;2886;49.722;8.612;2022-07-29T02:07:25;19.60;81.30
5723;DHT22;2886;49.722;8.612;2022-07-29T02:09:54;19.50;81.40
5723;DHT22;2886;49.722;8.612;2022-07-29T02:12:22;19.50;81.60
5723;DHT22;2886;49.722;8.612;2022-07-29T02:14:51;19.50;82.10
5723;DHT22;2886;49.722;8.612;2022-07-29T02:17:23;19.50;83.00
5723;DHT22;2886;49.722;8.612;2022-07-29T02:19:52;19.50;82.50
5723;DHT22;2886;49.722;8.612;2022-07-29T02:22:20;19.40;82.20
5723;DHT22;2886;49.722;8.612;2022-07-29T02:24:47;19.40;83.40
5723;DHT22;2886;49.722;8.612;2022-07-29T02:27:15;19.40;84.20
5723;DHT22;2886;49.722;8.612;2022-07-29T02:29:41;19.50;83.20
5723;DHT22;2886;49.722;8.612;2022-07-29T02:32:09;19.40;82.80
5723;DHT22;2886;49.722;8.612;2022-07-29T02:34:38;19.40;77.00
5723;DHT22;2886;49.722;8.612;2022-07-29T02:37:05;19.50;79.30
5723;DHT22;2886;49.722;8.612;2022-07-29T02:39:34;19.60;75.80
5723;DHT22;2886;49.722;8.612;2022-07-29T02:42:06;19.70;63.90
5723;DHT22;2886;49.722;8.612;2022-07-29T02:44:32;20.20;54.70
5723;DHT22;2886;49.722;8.612;2022-07-29T02:47:22;20.60;51.30
5723;DHT22;2886;49.722;8.612;2022-07-29T02:49:57;20.90;49.70
5723;DHT22;2886;49.722;8.612;2022-07-29T02:52:42;21.10;49.30
5723;DHT22;2886;49.722;8.612;2022-07-29T02:55:19;21.20;48.40
5723;DHT22;2886;49.722;8.612;2022-07-29T02:57:54;21.20;48.20
5723;DHT22;2886;49.722;8.612;2022-07-29T03:00:27;21.20;48.50
5723;DHT22;2886;49.722;8.612;2022-07-29T03:02:56;21.20;50.30
5723;DHT22;2886;49.722;8.612;2022-07-29T03:05:22;21.00;53.40
5723;DHT22;2886;49.722;8.612;2022-07-29T03:08:00;20.80;54.80
5723;DHT22;2886;49.722;8.612;2022-07-29T03:10:27;20.70;51.20
5723;DHT22;2886;49.722;8.612;2022-07-29T03:12:55;20.80;50.70
5723;DHT22;2886;49.722;8.612;2022-07-29T03:15:21;20.90;49.20
5723;DHT22;2886;49.722;8.612;2022-07-29T03:17:48;21.00;47.50
5723;DHT22;2886;49.722;8.612;2022-07-29T03:20:14;21.20;47.50
5723;DHT22;2886;49.722;8.612;2022-07-29T03:22:42;21.30;47.40
5723;DHT22;2886;49.722;8.612;2022-07-29T03:25:18;21.20;47.20
5723;DHT22;2886;49.722;8.612;2022-07-29T03:27:45;21.30;47.70
5723;DHT22;2886;49.722;8.612;2022-07-29T03:30:12;21.30;48.40
5723;DHT22;2886;49.722;8.612;2022-07-29T03:32:40;21.20;49.10
5723;DHT22;2886;49.722;8.612;2022-07-29T03:35:07;21.20;50.00
5723;DHT22;2886;49.722;8.612;2022-07-29T03:37:33;21.10;49.70
5723;DHT22;2886;49.722;8.612;2022-07-29T03:40:01;21.00;49.50
5723;DHT22;2886;49.722;8.612;2022-07-29T03:42:33;21.10;48.70
5723;DHT22;2886;49.722;8.612;2022-07-29T03:45:05;21.10;49.00
5723;DHT22;2886;49.722;8.612;2022-07-29T03:47:32;21.30;48.80
5723;DHT22;2886;49.722;8.612;2022-07-29T03:50:04;21.30;48.30
5723;DHT22;2886;49.722;8.612;2022-07-29T03:52:31;21.30;48.20
5723;DHT22;2886;49.722;8.612;2022-07-29T03:54:57;21.20;48.50
5723;DHT22;2886;49.722;8.612;2022-07-29T03:57:25;21.20;47.90
5723;DHT22;2886;49.722;8.612;2022-07-29T03:59:53;21.20;48.00
5723;DHT22;2886;49.722;8.612;2022-07-29T04:02:19;21.20;48.20
5723;DHT22;2886;49.722;8.612;2022-07-29T04:04:45;21.20;48.90
5723;DHT22;2886;49.722;8.612;2022-07-29T04:07:15;21.10;49.50
5723;DHT22;2886;49.722;8.612;2022-07-29T04:09:41;20.90;49.60
5723;DHT22;2886;49.722;8.612;2022-07-29T04:12:07;20.80;50.30
5723;DHT22;2886;49.722;8.612;2022-07-29T04:14:34;20.70;50.80
5723;DHT22;2886;49.722;8.612;2022-07-29T04:17:01;20.60;52.20
5723;DHT22;2886;49.722;8.612;2022-07-29T04:19:27;20.50;51.70
5723;DHT22;2886;49.722;8.612;2022-07-29T04:21:53;20.40;51.90
5723;DHT22;2886;49.722;8.612;2022-07-29T04:24:19;20.30;52.20
5723;DHT22;2886;49.722;8.612;2022-07-29T04:26:46;20.30;52.30
5723;DHT22;2886;49.722;8.612;2022-07-29T04:29:12;20.20;52.80
5723;DHT22;2886;49.722;8.612;2022-07-29T04:31:39;20.20;53.20
5723;DHT22;2886;49.722;8.612;2022-07-29T04:34:05;20.10;54.00
5723;DHT22;2886;49.722;8.612;2022-07-29T04:36:31;20.10;53.80
5723;DHT22;2886;49.722;8.612;2022-07-29T04:38:57;20.10;55.10
5723;DHT22;2886;49.722;8.612;2022-07-29T04:41:23;20.10;55.90
5723;DHT22;2886;49.722;8.612;2022-07-29T04:43:49;20.00;55.70
5723;DHT22;2886;49.722;8.612;2022-07-29T04:46:14;20.00;56.60
5723;DHT22;2886;49.722;8.612;2022-07-29T04:48:40;20.00;56.90
5723;DHT22;2886;49.722;8.612;2022-07-29T04:51:06;20.00;56.70
5723;DHT22;2886;49.722;8.612;2022-07-29T04:53:32;19.90;56.30
5723;DHT22;2886;49.722;8.612;2022-07-29T04:55:58;19.90;56.80
5723;DHT22;2886;49.722;8.612;2022-07-29T04:58:23;19.90;56.00
5723;DHT22;2886;49.722;8.612;2022-07-29T05:00:50;19.90;55.10
5723;DHT22;2886;49.722;8.612;2022-07-29T05:03:16;19.80;56.00
5723;DHT22;2886;49.722;8.612;2022-07-29T05:05:42;19.90;55.20
5723;DHT22;2886;49.722;8.612;2022-07-29T05:08:08;19.90;55.30
5723;DHT22;2886;49.722;8.612;2022-07-29T05:10:35;19.90;56.10
5723;DHT22;2886;49.722;8.612;2022-07-29T05:13:07;19.90;56.80
5723;DHT22;2886;49.722;8.612;2022-07-29T05:15:36;19.90;56.80
5723;DHT22;2886;49.722;8.612;2022-07-29T05:18:02;19.90;57.20
5723;DHT22;2886;49.722;8.612;2022-07-29T05:20:29;20.00;57.80
5723;DHT22;2886;49.722;8.612;2022-07-29T05:22:57;20.00;57.70
5723;DHT22;2886;49.722;8.612;2022-07-29T05:25:24;20.00;57.80
5723;DHT22;2886;49.722;8.612;2022-07-29T05:27:50;20.00;60.00
5723;DHT22;2886;49.722;8.612;2022-07-29T05:30:16;20.00;59.00
5723;DHT22;2886;49.722;8.612;2022-07-29T05:32:42;20.10;59.40
5723;DHT22;2886;49.722;8.612;2022-07-29T05:35:07;20.10;58.70
5723;DHT22;2886;49.722;8.612;2022-07-29T05:37:33;20.20;60.00
5723;DHT22;2886;49.722;8.612;2022-07-29T05:39:59;20.20;60.10
5723;DHT22;2886;49.722;8.612;2022-07-29T05:42:25;20.20;60.80
5723;DHT22;2886;49.722;8.612;2022-07-29T05:44:52;20.40;61.60
5723;DHT22;2886;49.722;8.612;2022-07-29T05:47:17;20.90;60.10
5723;DHT22;2886;49.722;8.612;2022-07-29T05:49:43;21.20;56.40
5723;DHT22;2886;49.722;8.612;2022-07-29T05:52:09;21.40;54.40
5723;DHT22;2886;49.722;8.612;2022-07-29T05:54:35;21.50;54.00
5723;DHT22;2886;49.722;8.612;2022-07-29T05:57:01;21.60;53.10
5723;DHT22;2886;49.722;8.612;2022-07-29T05:59:27;21.80;51.30
5723;DHT22;2886;49.722;8.612;2022-07-29T06:01:53;21.90;51.30
5723;DHT22;2886;49.722;8.612;2022-07-29T06:04:18;22.20;50.90
5723;DHT22;2886;49.722;8.612;2022-07-29T06:06:44;22.30;49.60
5723;DHT22;2886;49.722;8.612;2022-07-29T06:09:10;22.40;48.00
5723;DHT22;2886;49.722;8.612;2022-07-29T06:11:36;23.00;47.30
5723;DHT22;2886;49.722;8.612;2022-07-29T06:14:02;23.70;44.30
5723;DHT22;2886;49.722;8.612;2022-07-29T06:16:28;24.40;42.50
5723;DHT22;2886;49.722;8.612;2022-07-29T06:18:54;25.20;41.70
5723;DHT22;2886;49.722;8.612;2022-07-29T06:21:20;26.00;40.80
5723;DHT22;2886;49.722;8.612;2022-07-29T06:23:45;26.60;39.40
5723;DHT22;2886;49.722;8.612;2022-07-29T06:26:11;27.20;38.60
5723;DHT22;2886;49.722;8.612;2022-07-29T06:28:37;27.80;36.90
5723;DHT22;2886;49.722;8.612;2022-07-29T06:31:02;28.40;35.80
5723;DHT22;2886;49.722;8.612;2022-07-29T06:33:28;28.90;35.10
5723;DHT22;2886;49.722;8.612;2022-07-29T06:35:54;29.20;34.30
5723;DHT22;2886;49.722;8.612;2022-07-29T06:38:20;29.20;34.20
5723;DHT22;2886;49.722;8.612;2022-07-29T06:40:46;29.30;34.20
5723;DHT22;2886;49.722;8.612;2022-07-29T06:46:06;29.20;33.90
5723;DHT22;2886;49.722;8.612;2022-07-29T06:48:33;29.00;34.30
5723;DHT22;2886;49.722;8.612;2022-07-29T06:50:59;28.80;34.70
5723;DHT22;2886;49.722;8.612;2022-07-29T06:53:26;28.40;35.00
5723;DHT22;2886;49.722;8.612;2022-07-29T06:55:51;27.80;35.80
5723;DHT22;2886;49.722;8.612;2022-07-29T06:58:17;27.40;36.90
5723;DHT22;2886;49.722;8.612;2022-07-29T07:00:46;27.10;37.70
5723;DHT22;2886;49.722;8.612;2022-07-29T07:03:13;26.90;37.70
5723;DHT22;2886;49.722;8.612;2022-07-29T07:05:39;26.60;38.40
5723;DHT22;2886;49.722;8.612;2022-07-29T07:08:05;26.30;39.20
5723;DHT22;2886;49.722;8.612;2022-07-29T07:10:31;26.00;40.00
5723;DHT22;2886;49.722;8.612;2022-07-29T07:12:57;25.70;40.80
5723;DHT22;2886;49.722;8.612;2022-07-29T07:15:23;25.30;42.40
5723;DHT22;2886;49.722;8.612;2022-07-29T07:17:49;25.00;42.90
5723;DHT22;2886;49.722;8.612;2022-07-29T07:20:15;24.80;43.60
5723;DHT22;2886;49.722;8.612;2022-07-29T07:22:41;24.70;45.30
5723;DHT22;2886;49.722;8.612;2022-07-29T07:25:07;24.70;46.30
5723;DHT22;2886;49.722;8.612;2022-07-29T07:27:32;24.80;46.20
5723;DHT22;2886;49.722;8.612;2022-07-29T07:29:58;24.90;45.80
5723;DHT22;2886;49.722;8.612;2022-07-29T07:32:24;25.00;45.30
5723;DHT22;2886;49.722;8.612;2022-07-29T07:34:49;25.10;46.30
5723;DHT22;2886;49.722;8.612;2022-07-29T07:37:15;25.20;46.00
5723;DHT22;2886;49.722;8.612;2022-07-29T07:39:41;25.30;46.50
5723;DHT22;2886;49.722;8.612;2022-07-29T07:42:07;25.40;46.30
5723;DHT22;2886;49.722;8.612;2022-07-29T07:44:33;25.20;46.20
5723;DHT22;2886;49.722;8.612;2022-07-29T07:46:58;25.20;46.40
5723;DHT22;2886;49.722;8.612;2022-07-29T07:49:24;25.10;46.80
5723;DHT22;2886;49.722;8.612;2022-07-29T07:51:50;25.20;47.30
5723;DHT22;2886;49.722;8.612;2022-07-29T07:54:15;25.30;46.90
5723;DHT22;2886;49.722;8.612;2022-07-29T07:56:41;25.30;47.60
5723;DHT22;2886;49.722;8.612;2022-07-29T07:59:07;25.30;47.80
5723;DHT22;2886;49.722;8.612;2022-07-29T08:01:32;25.40;47.60
5723;DHT22;2886;49.722;8.612;2022-07-29T08:03:58;25.40;47.90
5723;DHT22;2886;49.722;8.612;2022-07-29T08:06:24;25.40;48.60
5723;DHT22;2886;49.722;8.612;2022-07-29T08:08:50;25.20;49.30
5723;DHT22;2886;49.722;8.612;2022-07-29T08:11:16;25.10;49.50
5723;DHT22;2886;49.722;8.612;2022-07-29T08:13:42;25.20;49.90
5723;DHT22;2886;49.722;8.612;2022-07-29T08:16:08;25.40;49.10
5723;DHT22;2886;49.722;8.612;2022-07-29T08:18:39;25.50;48.30
5723;DHT22;2886;49.722;8.612;2022-07-29T08:21:05;25.80;48.70
5723;DHT22;2886;49.722;8.612;2022-07-29T08:23:31;26.00;51.10
5723;DHT22;2886;49.722;8.612;2022-07-29T08:26:07;26.10;51.10
5723;DHT22;2886;49.722;8.612;2022-07-29T08:28:37;26.10;51.20
5723;DHT22;2886;49.722;8.612;2022-07-29T08:31:03;26.10;50.00
5723;DHT22;2886;49.722;8.612;2022-07-29T08:33:28;26.20;50.10
5723;DHT22;2886;49.722;8.612;2022-07-29T08:35:54;26.30;51.30
5723;DHT22;2886;49.722;8.612;2022-07-29T08:38:20;26.60;50.70
5723;DHT22;2886;49.722;8.612;2022-07-29T08:40:46;26.90;49.40
5723;DHT22;2886;49.722;8.612;2022-07-29T08:43:12;27.30;48.40
5723;DHT22;2886;49.722;8.612;2022-07-29T08:45:46;27.50;47.40
5723;DHT22;2886;49.722;8.612;2022-07-29T08:48:13;27.60;47.70
5723;DHT22;2886;49.722;8.612;2022-07-29T08:50:41;27.60;47.30
5723;DHT22;2886;49.722;8.612;2022-07-29T08:53:12;27.90;47.00
5723;DHT22;2886;49.722;8.612;2022-07-29T08:55:46;28.30;46.10
5723;DHT22;2886;49.722;8.612;2022-07-29T08:58:14;28.50;45.70
5723;DHT22;2886;49.722;8.612;2022-07-29T09:00:45;27.90;46.00
5723;DHT22;2886;49.722;8.612;2022-07-29T09:03:18;27.50;47.50
5723;DHT22;2886;49.722;8.612;2022-07-29T09:05:48;27.60;47.40
5723;DHT22;2886;49.722;8.612;2022-07-29T09:08:15;28.00;46.00
5723;DHT22;2886;49.722;8.612;2022-07-29T09:10:41;28.40;45.20
5723;DHT22;2886;49.722;8.612;2022-07-29T09:13:07;28.60;44.90
5723;DHT22;2886;49.722;8.612;2022-07-29T09:15:33;28.70;44.60
5723;DHT22;2886;49.722;8.612;2022-07-29T09:17:59;28.80;44.40
5723;DHT22;2886;49.722;8.612;2022-07-29T09:20:26;28.70;44.40
5723;DHT22;2886;49.722;8.612;2022-07-29T09:23:12;28.70;44.20
5723;DHT22;2886;49.722;8.612;2022-07-29T09:25:40;28.60;43.90
5723;DHT22;2886;49.722;8.612;2022-07-29T09:28:14;28.30;44.50
5723;DHT22;2886;49.722;8.612;2022-07-29T09:30:55;28.10;45.10
5723;DHT22;2886;49.722;8.612;2022-07-29T09:33:22;28.10;46.60
5723;DHT22;2886;49.722;8.612;2022-07-29T09:36:05;28.10;45.90
5723;DHT22;2886;49.722;8.612;2022-07-29T09:38:32;28.30;45.60
5723;DHT22;2886;49.722;8.612;2022-07-29T09:41:00;28.60;43.80
5723;DHT22;2886;49.722;8.612;2022-07-29T09:43:26;28.70;43.90
5723;DHT22;2886;49.722;8.612;2022-07-29T09:45:52;28.90;43.30
5723;DHT22;2886;49.722;8.612;2022-07-29T09:48:23;28.60;43.80
5723;DHT22;2886;49.722;8.612;2022-07-29T09:50:50;28.70;42.90
5723;DHT22;2886;49.722;8.612;2022-07-29T09:53:36;28.70;43.60
5723;DHT22;2886;49.722;8.612;2022-07-29T09:56:03;28.70;42.90
5723;DHT22;2886;49.722;8.612;2022-07-29T09:58:30;28.80;42.30
5723;DHT22;2886;49.722;8.612;2022-07-29T10:00:56;29.10;42.00
5723;DHT22;2886;49.722;8.612;2022-07-29T10:03:22;29.30;41.20
5723;DHT22;2886;49.722;8.612;2022-07-29T10:06:05;29.70;40.60
5723;DHT22;2886;49.722;8.612;2022-07-29T10:08:31;29.80;40.50
5723;DHT22;2886;49.722;8.612;2022-07-29T10:11:14;29.90;39.20
5723;DHT22;2886;49.722;8.612;2022-07-29T10:13:41;29.60;39.60
5723;DHT22;2886;49.722;8.612;2022-07-29T10:16:07;29.30;40.10
5723;DHT22;2886;49.722;8.612;2022-07-29T10:18:34;29.40;40.70
5723;DHT22;2886;49.722;8.612;2022-07-29T10:21:00;29.80;40.10
5723;DHT22;2886;49.722;8.612;2022-07-29T10:23:27;30.20;38.70
5723;DHT22;2886;49.722;8.612;2022-07-29T10:25:54;30.40;38.80
5723;DHT22;2886;49.722;8.612;2022-07-29T10:28:19;30.40;38.10
5723;DHT22;2886;49.722;8.612;2022-07-29T10:30:46;30.20;38.20
5723;DHT22;2886;49.722;8.612;2022-07-29T10:41:37;29.20;40.20
5723;DHT22;2886;49.722;8.612;2022-07-29T10:44:09;29.10;39.80
5723;DHT22;2886;49.722;8.612;2022-07-29T10:46:40;29.10;40.20
5723;DHT22;2886;49.722;8.612;2022-07-29T10:49:20;29.10;40.20
5723;DHT22;2886;49.722;8.612;2022-07-29T10:52:09;29.00;40.70
5723;DHT22;2886;49.722;8.612;2022-07-29T10:54:42;28.70;41.20
5723;DHT22;2886;49.722;8.612;2022-07-29T10:59:38;28.40;41.80
5723;DHT22;2886;49.722;8.612;2022-07-29T11:05:19;28.80;41.30
5723;DHT22;2886;49.722;8.612;2022-07-29T11:10:39;29.00;41.40
5723;DHT22;2886;49.722;8.612;2022-07-29T11:13:05;29.00;41.00
5723;DHT22;2886;49.722;8.612;2022-07-29T11:15:52;29.20;40.90
5723;DHT22;2886;49.722;8.612;2022-07-29T11:18:18;29.40;40.80
5723;DHT22;2886;49.722;8.612;2022-07-29T11:23:33;30.30;40.50
5723;DHT22;2886;49.722;8.612;2022-07-29T11:31:16;32.10;36.30
5723;DHT22;2886;49.722;8.612;2022-07-29T11:33:45;32.40;36.00
5723;DHT22;2886;49.722;8.612;2022-07-29T11:36:14;31.70;36.30
5723;DHT22;2886;49.722;8.612;2022-07-29T11:38:41;30.80;37.70
5723;DHT22;2886;49.722;8.612;2022-07-29T11:41:22;30.40;38.80
5723;DHT22;2886;49.722;8.612;2022-07-29T11:43:57;30.40;38.60
5723;DHT22;2886;49.722;8.612;2022-07-29T11:46:45;30.50;38.40
5723;DHT22;2886;49.722;8.612;2022-07-29T11:49:13;30.70;38.20
5723;DHT22;2886;49.722;8.612;2022-07-29T11:51:39;30.90;37.70
5723;DHT22;2886;49.722;8.612;2022-07-29T11:54:05;31.10;37.30
5723;DHT22;2886;49.722;8.612;2022-07-29T11:56:32;31.50;37.00
5723;DHT22;2886;49.722;8.612;2022-07-29T11:59:07;31.90;35.50
5723;DHT22;2886;49.722;8.612;2022-07-29T12:01:35;31.90;35.50
5723;DHT22;2886;49.722;8.612;2022-07-29T12:04:07;31.70;35.70
5723;DHT22;2886;49.722;8.612;2022-07-29T12:06:34;31.60;35.90
5723;DHT22;2886;49.722;8.612;2022-07-29T12:09:00;31.60;35.60
5723;DHT22;2886;49.722;8.612;2022-07-29T12:11:26;31.60;35.70
5723;DHT22;2886;49.722;8.612;2022-07-29T12:13:52;31.70;34.90
5723;DHT22;2886;49.722;8.612;2022-07-29T12:16:21;31.50;34.80
5723;DHT22;2886;49.722;8.612;2022-07-29T12:18:58;31.40;34.80
5723;DHT22;2886;49.722;8.612;2022-07-29T12:21:24;31.20;35.20
5723;DHT22;2886;49.722;8.612;2022-07-29T12:23:54;31.10;35.50
5723;DHT22;2886;49.722;8.612;2022-07-29T12:26:20;31.20;36.00
5723;DHT22;2886;49.722;8.612;2022-07-29T12:28:46;31.20;36.40
5723;DHT22;2886;49.722;8.612;2022-07-29T12:31:15;31.10;36.20
5723;DHT22;2886;49.722;8.612;2022-07-29T12:33:41;30.80;36.50
5723;DHT22;2886;49.722;8.612;2022-07-29T12:36:08;30.20;37.60
5723;DHT22;2886;49.722;8.612;2022-07-29T12:38:34;30.00;37.90
5723;DHT22;2886;49.722;8.612;2022-07-29T12:41:01;30.20;37.80
5723;DHT22;2886;49.722;8.612;2022-07-29T12:43:27;30.60;37.10
5723;DHT22;2886;49.722;8.612;2022-07-29T12:45:55;30.70;36.70
5723;DHT22;2886;49.722;8.612;2022-07-29T12:51:01;30.10;38.30
5723;DHT22;2886;49.722;8.612;2022-07-29T12:53:27;30.30;37.90
5723;DHT22;2886;49.722;8.612;2022-07-29T12:55:55;30.30;38.50
5723;DHT22;2886;49.722;8.612;2022-07-29T12:58:33;30.40;38.40
5723;DHT22;2886;49.722;8.612;2022-07-29T13:01:11;30.50;37.20
5723;DHT22;2886;49.722;8.612;2022-07-29T13:03:48;30.50;37.10
5723;DHT22;2886;49.722;8.612;2022-07-29T13:09:15;30.80;36.40
5723;DHT22;2886;49.722;8.612;2022-07-29T13:11:49;30.80;35.80
5723;DHT22;2886;49.722;8.612;2022-07-29T13:14:34;30.60;36.10
5723;DHT22;2886;49.722;8.612;2022-07-29T13:17:17;31.00;35.20
5723;DHT22;2886;49.722;8.612;2022-07-29T13:19:49;31.00;34.80
5723;DHT22;2886;49.722;8.612;2022-07-29T13:22:22;30.80;34.90
5723;DHT22;2886;49.722;8.612;2022-07-29T13:24:59;30.90;34.50
5723;DHT22;2886;49.722;8.612;2022-07-29T13:27:29;31.00;34.50
5723;DHT22;2886;49.722;8.612;2022-07-29T13:29:56;31.10;33.80
5723;DHT22;2886;49.722;8.612;2022-07-29T13:32:24;31.10;33.90
5723;DHT22;2886;49.722;8.612;2022-07-29T13:34:51;31.30;34.40
5723;DHT22;2886;49.722;8.612;2022-07-29T13:37:18;31.50;33.50
5723;DHT22;2886;49.722;8.612;2022-07-29T13:39:43;31.00;34.30
5723;DHT22;2886;49.722;8.612;2022-07-29T13:42:10;30.60;34.60
5723;DHT22;2886;49.722;8.612;2022-07-29T13:44:39;30.20;35.50
5723;DHT22;2886;49.722;8.612;2022-07-29T13:47:06;30.10;36.30
5723;DHT22;2886;49.722;8.612;2022-07-29T13:49:32;30.20;35.70
5723;DHT22;2886;49.722;8.612;2022-07-29T13:51:58;30.30;35.80
5723;DHT22;2886;49.722;8.612;2022-07-29T13:54:23;30.50;34.20
5723;DHT22;2886;49.722;8.612;2022-07-29T13:56:50;30.60;34.10
5723;DHT22;2886;49.722;8.612;2022-07-29T13:59:16;30.90;33.30
5723;DHT22;2886;49.722;8.612;2022-07-29T14:01:42;31.10;33.70
5723;DHT22;2886;49.722;8.612;2022-07-29T14:04:09;31.20;33.70
5723;DHT22;2886;49.722;8.612;2022-07-29T14:06:36;31.50;32.90
5723;DHT22;2886;49.722;8.612;2022-07-29T14:09:03;32.00;32.10
5723;DHT22;2886;49.722;8.612;2022-07-29T14:11:32;32.30;32.10
5723;DHT22;2886;49.722;8.612;2022-07-29T14:13:58;32.40;32.50
5723;DHT22;2886;49.722;8.612;2022-07-29T14:16:23;32.40;32.40
5723;DHT22;2886;49.722;8.612;2022-07-29T14:18:49;32.40;32.10
5723;DHT22;2886;49.722;8.612;2022-07-29T14:21:15;32.40;31.80
5723;DHT22;2886;49.722;8.612;2022-07-29T14:23:40;32.30;31.60
5723;DHT22;2886;49.722;8.612;2022-07-29T14:26:06;32.20;31.80
5723;DHT22;2886;49.722;8.612;2022-07-29T14:28:32;31.70;32.60
5723;DHT22;2886;49.722;8.612;2022-07-29T14:30:58;31.60;33.10
5723;DHT22;2886;49.722;8.612;2022-07-29T14:33:23;31.40;33.50
5723;DHT22;2886;49.722;8.612;2022-07-29T14:35:49;31.30;34.00
5723;DHT22;2886;49.722;8.612;2022-07-29T14:38:15;31.60;33.60
5723;DHT22;2886;49.722;8.612;2022-07-29T14:40:41;31.70;33.30
5723;DHT22;2886;49.722;8.612;2022-07-29T14:43:06;31.50;33.90
5723;DHT22;2886;49.722;8.612;2022-07-29T14:45:32;31.10;34.10
5723;DHT22;2886;49.722;8.612;2022-07-29T14:47:58;31.00;34.80
5723;DHT22;2886;49.722;8.612;2022-07-29T14:50:25;31.10;34.10
5723;DHT22;2886;49.722;8.612;2022-07-29T14:52:52;31.00;34.20
5723;DHT22;2886;49.722;8.612;2022-07-29T14:55:18;31.10;34.30
5723;DHT22;2886;49.722;8.612;2022-07-29T14:57:44;31.10;33.40
5723;DHT22;2886;49.722;8.612;2022-07-29T15:00:10;30.80;34.10
5723;DHT22;2886;49.722;8.612;2022-07-29T15:02:37;30.60;34.60
5723;DHT22;2886;49.722;8.612;2022-07-29T15:05:03;30.70;34.40
5723;DHT22;2886;49.722;8.612;2022-07-29T15:07:29;31.00;33.50
5723;DHT22;2886;49.722;8.612;2022-07-29T15:09:54;30.70;33.00
5723;DHT22;2886;49.722;8.612;2022-07-29T15:12:21;30.40;33.90
5723;DHT22;2886;49.722;8.612;2022-07-29T15:14:47;30.50;33.80
5723;DHT22;2886;49.722;8.612;2022-07-29T15:17:14;30.60;33.20
5723;DHT22;2886;49.722;8.612;2022-07-29T15:19:40;30.80;32.20
5723;DHT22;2886;49.722;8.612;2022-07-29T15:22:06;31.00;32.20
5723;DHT22;2886;49.722;8.612;2022-07-29T15:24:31;30.80;32.00
5723;DHT22;2886;49.722;8.612;2022-07-29T15:26:57;30.60;32.40
5723;DHT22;2886;49.722;8.612;2022-07-29T15:29:23;30.60;32.40
5723;DHT22;2886;49.722;8.612;2022-07-29T15:31:49;30.80;32.20
5723;DHT22;2886;49.722;8.612;2022-07-29T15:34:14;30.80;31.60
5723;DHT22;2886;49.722;8.612;2022-07-29T15:36:41;31.00;31.60
5723;DHT22;2886;49.722;8.612;2022-07-29T15:39:07;31.20;30.90
5723;DHT22;2886;49.722;8.612;2022-07-29T15:41:34;31.50;31.10
5723;DHT22;2886;49.722;8.612;2022-07-29T15:44:00;31.50;30.50
5723;DHT22;2886;49.722;8.612;2022-07-29T15:46:26;31.30;30.50
5723;DHT22;2886;49.722;8.612;2022-07-29T15:49:10;31.30;31.20
5723;DHT22;2886;49.722;8.612;2022-07-29T15:51:36;31.20;31.80
5723;DHT22;2886;49.722;8.612;2022-07-29T15:54:03;30.90;32.20
5723;DHT22;2886;49.722;8.612;2022-07-29T15:56:29;30.50;32.60
5723;DHT22;2886;49.722;8.612;2022-07-29T15:58:55;30.20;33.20
5723;DHT22;2886;49.722;8.612;2022-07-29T16:01:22;30.10;33.00
5723;DHT22;2886;49.722;8.612;2022-07-29T16:03:48;30.00;33.00
5723;DHT22;2886;49.722;8.612;2022-07-29T16:06:15;29.70;33.30
5723;DHT22;2886;49.722;8.612;2022-07-29T16:08:40;29.60;33.80
5723;DHT22;2886;49.722;8.612;2022-07-29T16:11:06;29.70;33.70
5723;DHT22;2886;49.722;8.612;2022-07-29T16:13:32;29.90;33.60
5723;DHT22;2886;49.722;8.612;2022-07-29T16:15:58;30.10;33.40
5723;DHT22;2886;49.722;8.612;2022-07-29T16:18:23;30.30;33.00
5723;DHT22;2886;49.722;8.612;2022-07-29T16:20:49;30.20;32.90
5723;DHT22;2886;49.722;8.612;2022-07-29T16:23:15;30.00;32.80
5723;DHT22;2886;49.722;8.612;2022-07-29T16:25:41;29.60;33.50
5723;DHT22;2886;49.722;8.612;2022-07-29T16:28:07;29.50;34.90
5723;DHT22;2886;49.722;8.612;2022-07-29T16:30:34;29.30;34.70
5723;DHT22;2886;49.722;8.612;2022-07-29T16:33:01;29.20;35.70
5723;DHT22;2886;49.722;8.612;2022-07-29T16:35:27;29.10;36.10
5723;DHT22;2886;49.722;8.612;2022-07-29T16:37:55;29.20;37.00
5723;DHT22;2886;49.722;8.612;2022-07-29T16:40:21;29.10;36.70
5723;DHT22;2886;49.722;8.612;2022-07-29T16:42:47;29.00;37.80
5723;DHT22;2886;49.722;8.612;2022-07-29T16:45:14;28.80;38.20
5723;DHT22;2886;49.722;8.612;2022-07-29T16:47:40;28.80;37.90
5723;DHT22;2886;49.722;8.612;2022-07-29T16:50:06;28.70;38.10
5723;DHT22;2886;49.722;8.612;2022-07-29T16:52:32;28.90;38.20
5723;DHT22;2886;49.722;8.612;2022-07-29T16:54:58;29.00;38.30